sensor_id;sensor_type;location;lat;lon;timestamp;pressure;altitude;pressure_sealevel;temperature;humidity
56142;BME280;42018;48.588;10.836;2022-09-27T00:00:41;95235.44;;;11.78;69.38
56142;BME280;42018;48.588;10.836;2022-09-27T00:03:28;95222.69;;;11.97;69.14
56142;BME280;42018;48.588;10.836;2022-09-27T00:06:24;95228.63;;;11.94;68.72
56142;BME280;42018;48.588;10.836;2022-09-27T00:09:10;95223.31;;;11.94;69.22
56142;BME280;42018;48.588;10.836;2022-09-27T00:11:55;95222.25;;;12.04;68.58
56142;BME280;42018;48.588;10.836;2022-09-27T00:14:40;95217.53;;;12.01;67.96
56142;BME280;42018;48.588;10.836;2022-09-27T00:17:26;95215.53;;;12.07;68.63
56142;BME280;42018;48.588;10.836;2022-09-27T00:20:12;95213.03;;;12.19;68.00
56142;BME280;42018;48.588;10.836;2022-09-27T00:22:57;95211.78;;;12.08;68.71
56142;BME280;42018;48.588;10.836;2022-09-27T00:25:54;95209.09;;;11.90;69.12
56142;BME280;42018;48.588;10.836;2022-09-27T00:28:40;95205.06;;;12.02;70.08
56142;BME280;42018;48.588;10.836;2022-09-27T00:31:27;95203.34;;;11.97;69.81
56142;BME280;42018;48.588;10.836;2022-09-27T00:34:22;95203.34;;;11.88;70.33
56142;BME280;42018;48.588;10.836;2022-09-27T00:37:08;95201.41;;;11.71;70.57
56142;BME280;42018;48.588;10.836;2022-09-27T00:39:54;95204.03;;;11.63;71.02
56142;BME280;42018;48.588;10.836;2022-09-27T00:42:39;95213.69;;;11.59;71.16
56142;BME280;42018;48.588;10.836;2022-09-27T00:45:24;95207.16;;;11.56;71.56
56142;BME280;42018;48.588;10.836;2022-09-27T00:48:12;95200.06;;;11.34;72.01
56142;BME280;42018;48.588;10.836;2022-09-27T00:51:02;95191.69;;;11.58;72.24
56142;BME280;42018;48.588;10.836;2022-09-27T00:53:51;95190.88;;;11.40;73.00
56142;BME280;42018;48.588;10.836;2022-09-27T00:56:39;95190.09;;;11.40;73.88
56142;BME280;42018;48.588;10.836;2022-09-27T00:59:29;95186.34;;;11.32;74.37
56142;BME280;42018;48.588;10.836;2022-09-27T01:02:18;95177.91;;;11.30;75.23
56142;BME280;42018;48.588;10.836;2022-09-27T01:05:05;95181.03;;;11.32;75.14
56142;BME280;42018;48.588;10.836;2022-09-27T01:07:52;95171.66;;;11.26;76.39
56142;BME280;42018;48.588;10.836;2022-09-27T01:10:51;95170.72;;;11.22;75.61
56142;BME280;42018;48.588;10.836;2022-09-27T01:14:10;95170.34;;;11.06;76.29
56142;BME280;42018;48.588;10.836;2022-09-27T01:26:10;95162.50;;;11.41;76.01
56142;BME280;42018;48.588;10.836;2022-09-27T01:32:33;95162.16;;;10.85;77.37
56142;BME280;42018;48.588;10.836;2022-09-27T01:41:50;95142.88;;;10.93;78.31
56142;BME280;42018;48.588;10.836;2022-09-27T01:44:51;95138.44;;;10.80;78.44
56142;BME280;42018;48.588;10.836;2022-09-27T01:47:44;95144.00;;;10.70;79.25
56142;BME280;42018;48.588;10.836;2022-09-27T01:50:34;95132.38;;;10.79;79.34
56142;BME280;42018;48.588;10.836;2022-09-27T01:53:24;95130.94;;;10.73;79.90
56142;BME280;42018;48.588;10.836;2022-09-27T01:56:21;95135.84;;;10.58;80.63
56142;BME280;42018;48.588;10.836;2022-09-27T01:59:12;95125.00;;;10.68;80.03
56142;BME280;42018;48.588;10.836;2022-09-27T02:02:02;95124.31;;;10.53;80.37
56142;BME280;42018;48.588;10.836;2022-09-27T02:04:50;95116.53;;;10.57;80.42
56142;BME280;42018;48.588;10.836;2022-09-27T02:07:54;95116.72;;;10.29;81.14
56142;BME280;42018;48.588;10.836;2022-09-27T02:10:42;95106.63;;;10.40;80.95
56142;BME280;42018;48.588;10.836;2022-09-27T02:14:07;95107.66;;;10.30;81.25
56142;BME280;42018;48.588;10.836;2022-09-27T02:17:04;95118.09;;;10.27;81.70
56142;BME280;42018;48.588;10.836;2022-09-27T02:23:22;95105.75;;;10.00;83.32
56142;BME280;42018;48.588;10.836;2022-09-27T02:26:21;95103.09;;;10.22;82.57
56142;BME280;42018;48.588;10.836;2022-09-27T02:29:13;95100.50;;;10.08;83.29
56142;BME280;42018;48.588;10.836;2022-09-27T02:32:00;95097.16;;;10.39;82.20
56142;BME280;42018;48.588;10.836;2022-09-27T02:34:47;95089.78;;;10.14;83.26
56142;BME280;42018;48.588;10.836;2022-09-27T02:37:34;95093.69;;;10.16;83.19
56142;BME280;42018;48.588;10.836;2022-09-27T02:40:20;95100.03;;;10.06;83.19
56142;BME280;42018;48.588;10.836;2022-09-27T02:43:06;95089.22;;;9.94;84.60
56142;BME280;42018;48.588;10.836;2022-09-27T03:00:50;95081.44;;;10.43;82.88
56142;BME280;42018;48.588;10.836;2022-09-27T03:03:45;95086.38;;;10.36;83.08
56142;BME280;42018;48.588;10.836;2022-09-27T03:06:37;95094.75;;;10.29;83.11
56142;BME280;42018;48.588;10.836;2022-09-27T03:09:28;95081.38;;;10.12;84.08
56142;BME280;42018;48.588;10.836;2022-09-27T03:12:15;95078.91;;;10.38;83.16
56142;BME280;42018;48.588;10.836;2022-09-27T03:15:09;95088.41;;;10.39;82.45
56142;BME280;42018;48.588;10.836;2022-09-27T03:17:55;95078.94;;;10.24;83.80
56142;BME280;42018;48.588;10.836;2022-09-27T03:20:40;95072.13;;;10.54;82.41
56142;BME280;42018;48.588;10.836;2022-09-27T03:23:26;95072.81;;;10.37;83.25
56142;BME280;42018;48.588;10.836;2022-09-27T03:26:11;95074.38;;;10.38;83.43
56142;BME280;42018;48.588;10.836;2022-09-27T03:28:57;95085.13;;;10.33;83.58
56142;BME280;42018;48.588;10.836;2022-09-27T03:31:42;95084.16;;;10.29;83.67
56142;BME280;42018;48.588;10.836;2022-09-27T03:34:27;95083.31;;;9.97;84.86
56142;BME280;42018;48.588;10.836;2022-09-27T03:37:13;95078.06;;;10.06;85.18
56142;BME280;42018;48.588;10.836;2022-09-27T03:39:59;95082.13;;;10.03;84.96
56142;BME280;42018;48.588;10.836;2022-09-27T03:42:44;95085.13;;;10.33;83.99
56142;BME280;42018;48.588;10.836;2022-09-27T03:45:30;95085.16;;;10.19;84.37
56142;BME280;42018;48.588;10.836;2022-09-27T03:48:15;95080.59;;;10.34;83.63
56142;BME280;42018;48.588;10.836;2022-09-27T03:51:01;95078.88;;;10.29;83.37
56142;BME280;42018;48.588;10.836;2022-09-27T03:53:46;95072.06;;;10.37;83.08
56142;BME280;42018;48.588;10.836;2022-09-27T03:56:32;95074.38;;;10.38;83.97
56142;BME280;42018;48.588;10.836;2022-09-27T03:59:17;95071.97;;;10.50;82.87
56142;BME280;42018;48.588;10.836;2022-09-27T04:02:03;95078.19;;;10.54;82.31
56142;BME280;42018;48.588;10.836;2022-09-27T04:04:48;95075.81;;;10.44;82.87
56142;BME280;42018;48.588;10.836;2022-09-27T04:07:34;95070.75;;;10.57;82.79
56142;BME280;42018;48.588;10.836;2022-09-27T04:10:19;95069.28;;;10.82;81.77
56142;BME280;42018;48.588;10.836;2022-09-27T04:13:05;95062.03;;;10.65;81.49
56142;BME280;42018;48.588;10.836;2022-09-27T04:15:51;95062.00;;;10.56;82.29
56142;BME280;42018;48.588;10.836;2022-09-27T04:18:36;95058.13;;;10.62;81.72
56142;BME280;42018;48.588;10.836;2022-09-27T04:21:22;95054.56;;;10.67;81.45
56142;BME280;42018;48.588;10.836;2022-09-27T04:24:07;95053.34;;;10.73;81.00
56142;BME280;42018;48.588;10.836;2022-09-27T04:26:55;95059.25;;;10.70;81.37
56142;BME280;42018;48.588;10.836;2022-09-27T04:29:40;95062.38;;;10.10;83.82
56142;BME280;42018;48.588;10.836;2022-09-27T04:32:29;95061.28;;;10.33;82.99
56142;BME280;42018;48.588;10.836;2022-09-27T04:35:15;95067.56;;;10.15;83.42
56142;BME280;42018;48.588;10.836;2022-09-27T04:38:19;95081.03;;;10.27;83.28
56142;BME280;42018;48.588;10.836;2022-09-27T04:41:08;95071.88;;;10.33;82.92
56142;BME280;42018;48.588;10.836;2022-09-27T04:43:55;95089.47;;;10.29;83.09
56142;BME280;42018;48.588;10.836;2022-09-27T04:46:41;95113.09;;;10.25;84.00
56142;BME280;42018;48.588;10.836;2022-09-27T04:49:26;95128.06;;;10.30;84.77
56142;BME280;42018;48.588;10.836;2022-09-27T04:52:15;95127.06;;;9.81;80.58
56142;BME280;42018;48.588;10.836;2022-09-27T04:55:00;95126.56;;;9.93;81.44
56142;BME280;42018;48.588;10.836;2022-09-27T04:57:47;95136.59;;;9.82;82.43
56142;BME280;42018;48.588;10.836;2022-09-27T05:00:32;95138.00;;;9.66;81.52
56142;BME280;42018;48.588;10.836;2022-09-27T05:03:18;95140.81;;;9.33;81.13
56142;BME280;42018;48.588;10.836;2022-09-27T05:06:03;95145.88;;;9.57;81.02
56142;BME280;42018;48.588;10.836;2022-09-27T05:08:49;95148.78;;;9.69;80.25
56142;BME280;42018;48.588;10.836;2022-09-27T05:11:34;95151.34;;;9.61;80.60
56142;BME280;42018;48.588;10.836;2022-09-27T05:14:22;95158.94;;;9.76;79.58
56142;BME280;42018;48.588;10.836;2022-09-27T05:17:07;95167.16;;;9.74;79.46
56142;BME280;42018;48.588;10.836;2022-09-27T05:19:54;95162.69;;;9.61;79.83
56142;BME280;42018;48.588;10.836;2022-09-27T05:22:39;95173.72;;;9.77;79.75
56142;BME280;42018;48.588;10.836;2022-09-27T05:25:25;95172.81;;;9.81;79.08
56142;BME280;42018;48.588;10.836;2022-09-27T05:28:10;95174.00;;;9.89;78.56
56142;BME280;42018;48.588;10.836;2022-09-27T05:30:56;95178.00;;;9.87;78.12
56142;BME280;42018;48.588;10.836;2022-09-27T05:33:41;95190.91;;;9.52;77.81
56142;BME280;42018;48.588;10.836;2022-09-27T05:36:26;95187.31;;;9.84;78.04
56142;BME280;42018;48.588;10.836;2022-09-27T05:39:12;95192.34;;;9.72;76.88
56142;BME280;42018;48.588;10.836;2022-09-27T05:41:58;95200.56;;;9.70;77.00
56142;BME280;42018;48.588;10.836;2022-09-27T05:44:43;95195.56;;;9.82;77.31
56142;BME280;42018;48.588;10.836;2022-09-27T05:47:32;95201.41;;;9.93;76.52
56142;BME280;42018;48.588;10.836;2022-09-27T05:50:17;95201.66;;;10.05;76.23
56142;BME280;42018;48.588;10.836;2022-09-27T05:53:03;95206.03;;;10.10;76.34
56142;BME280;42018;48.588;10.836;2022-09-27T05:55:49;95211.28;;;10.24;76.60
56142;BME280;42018;48.588;10.836;2022-09-27T05:58:34;95211.88;;;10.35;76.23
56142;BME280;42018;48.588;10.836;2022-09-27T06:01:20;95211.41;;;10.33;76.70
56142;BME280;42018;48.588;10.836;2022-09-27T06:04:05;95226.53;;;10.18;77.05
56142;BME280;42018;48.588;10.836;2022-09-27T06:06:50;95227.09;;;10.29;77.39
56142;BME280;42018;48.588;10.836;2022-09-27T06:09:36;95230.13;;;10.36;77.02
56142;BME280;42018;48.588;10.836;2022-09-27T06:12:21;95224.22;;;10.39;76.91
56142;BME280;42018;48.588;10.836;2022-09-27T06:15:07;95233.06;;;10.21;77.57
56142;BME280;42018;48.588;10.836;2022-09-27T06:17:52;95229.22;;;10.04;79.15
56142;BME280;42018;48.588;10.836;2022-09-27T06:20:39;95229.97;;;10.05;79.12
56142;BME280;42018;48.588;10.836;2022-09-27T06:23:28;95228.63;;;10.07;79.02
56142;BME280;42018;48.588;10.836;2022-09-27T06:26:16;95227.94;;;10.02;78.65
56142;BME280;42018;48.588;10.836;2022-09-27T06:29:02;95228.13;;;10.05;79.02
56142;BME280;42018;48.588;10.836;2022-09-27T06:31:47;95222.78;;;10.19;77.80
56142;BME280;42018;48.588;10.836;2022-09-27T06:34:33;95224.53;;;10.24;77.83
56142;BME280;42018;48.588;10.836;2022-09-27T06:37:18;95224.94;;;10.53;77.49
56142;BME280;42018;48.588;10.836;2022-09-27T06:40:04;95226.25;;;10.42;76.57
56142;BME280;42018;48.588;10.836;2022-09-27T06:42:49;95229.63;;;10.34;76.95
56142;BME280;42018;48.588;10.836;2022-09-27T06:45:36;95227.34;;;10.64;76.93
56142;BME280;42018;48.588;10.836;2022-09-27T06:48:21;95228.00;;;10.69;75.65
56142;BME280;42018;48.588;10.836;2022-09-27T06:51:06;95229.81;;;10.60;75.30
56142;BME280;42018;48.588;10.836;2022-09-27T06:53:52;95240.38;;;10.83;74.61
56142;BME280;42018;48.588;10.836;2022-09-27T06:56:37;95238.81;;;10.82;74.26
56142;BME280;42018;48.588;10.836;2022-09-27T06:59:23;95236.44;;;10.71;73.31
56142;BME280;42018;48.588;10.836;2022-09-27T07:02:27;95245.00;;;10.77;73.83
56142;BME280;42018;48.588;10.836;2022-09-27T07:05:12;95253.22;;;10.89;72.31
56142;BME280;42018;48.588;10.836;2022-09-27T07:07:58;95251.78;;;10.92;72.39
56142;BME280;42018;48.588;10.836;2022-09-27T07:10:43;95253.56;;;10.74;72.14
56142;BME280;42018;48.588;10.836;2022-09-27T07:13:29;95266.94;;;10.46;72.76
56142;BME280;42018;48.588;10.836;2022-09-27T07:16:18;95267.78;;;10.19;72.89
56142;BME280;42018;48.588;10.836;2022-09-27T07:19:04;95272.69;;;10.26;73.48
56142;BME280;42018;48.588;10.836;2022-09-27T07:21:51;95271.81;;;10.03;73.66
56142;BME280;42018;48.588;10.836;2022-09-27T07:24:37;95288.94;;;10.19;73.55
56142;BME280;42018;48.588;10.836;2022-09-27T07:27:22;95280.94;;;10.11;74.44
56142;BME280;42018;48.588;10.836;2022-09-27T07:30:10;95280.59;;;9.76;74.71
56142;BME280;42018;48.588;10.836;2022-09-27T07:33:00;95281.31;;;10.18;75.50
56142;BME280;42018;48.588;10.836;2022-09-27T07:35:45;95287.59;;;10.22;75.44
56142;BME280;42018;48.588;10.836;2022-09-27T07:38:31;95296.06;;;10.46;74.26
56142;BME280;42018;48.588;10.836;2022-09-27T07:41:16;95293.06;;;10.62;73.46
56142;BME280;42018;48.588;10.836;2022-09-27T07:44:02;95293.06;;;10.62;72.77
56142;BME280;42018;48.588;10.836;2022-09-27T07:46:47;95316.78;;;10.67;73.03
56142;BME280;42018;48.588;10.836;2022-09-27T07:49:33;95309.28;;;10.60;72.77
56142;BME280;42018;48.588;10.836;2022-09-27T07:52:19;95308.84;;;10.17;73.59
56142;BME280;42018;48.588;10.836;2022-09-27T07:55:05;95313.75;;;10.60;73.67
56142;BME280;42018;48.588;10.836;2022-09-27T07:57:50;95315.53;;;10.87;73.07
56142;BME280;42018;48.588;10.836;2022-09-27T08:00:37;95316.88;;;10.39;72.78
56142;BME280;42018;48.588;10.836;2022-09-27T08:03:23;95324.16;;;10.56;72.87
56142;BME280;42018;48.588;10.836;2022-09-27T08:06:09;95323.66;;;10.18;72.72
56142;BME280;42018;48.588;10.836;2022-09-27T08:08:55;95335.22;;;10.22;73.19
56142;BME280;42018;48.588;10.836;2022-09-27T08:11:42;95331.78;;;10.35;73.27
56142;BME280;42018;48.588;10.836;2022-09-27T08:14:30;95336.44;;;10.52;72.41
56142;BME280;42018;48.588;10.836;2022-09-27T08:17:16;95349.88;;;10.55;71.84
56142;BME280;42018;48.588;10.836;2022-09-27T08:20:01;95345.13;;;10.16;72.40
56142;BME280;42018;48.588;10.836;2022-09-27T08:22:50;95342.56;;;10.25;72.40
56142;BME280;42018;48.588;10.836;2022-09-27T08:25:35;95356.03;;;10.28;72.22
56142;BME280;42018;48.588;10.836;2022-09-27T08:28:21;95351.72;;;10.33;71.34
56142;BME280;42018;48.588;10.836;2022-09-27T08:31:06;95352.09;;;10.40;71.21
56142;BME280;42018;48.588;10.836;2022-09-27T08:33:52;95349.81;;;10.47;70.79
56142;BME280;42018;48.588;10.836;2022-09-27T08:36:37;95362.44;;;10.64;71.20
56142;BME280;42018;48.588;10.836;2022-09-27T08:39:23;95366.31;;;10.30;70.03
56142;BME280;42018;48.588;10.836;2022-09-27T08:48:07;95376.25;;;10.61;70.93
56142;BME280;42018;48.588;10.836;2022-09-27T08:50:54;95383.50;;;10.91;70.48
56142;BME280;42018;48.588;10.836;2022-09-27T08:53:46;95373.25;;;10.76;68.45
56142;BME280;42018;48.588;10.836;2022-09-27T08:56:35;95385.94;;;10.65;68.07
56142;BME280;42018;48.588;10.836;2022-09-27T08:59:30;95394.81;;;10.47;69.76
56142;BME280;42018;48.588;10.836;2022-09-27T09:02:20;95399.22;;;10.51;69.26
56142;BME280;42018;48.588;10.836;2022-09-27T09:05:11;95399.22;;;10.88;69.80
56142;BME280;42018;48.588;10.836;2022-09-27T09:11:10;95405.75;;;11.26;68.56
56142;BME280;42018;48.588;10.836;2022-09-27T09:23:50;95405.75;;;11.26;64.39
56142;BME280;42018;48.588;10.836;2022-09-27T09:35:41;95408.81;;;11.73;62.84
56142;BME280;42018;48.588;10.836;2022-09-27T09:41:39;95409.47;;;11.79;62.32
56142;BME280;42018;48.588;10.836;2022-09-27T09:45:05;95402.56;;;12.01;63.22
56142;BME280;42018;48.588;10.836;2022-09-27T09:50:46;95409.59;;;11.43;60.87
56142;BME280;42018;48.588;10.836;2022-09-27T09:56:23;95419.31;;;11.25;61.55
56142;BME280;42018;48.588;10.836;2022-09-27T09:59:17;95414.78;;;11.25;62.26
56142;BME280;42018;48.588;10.836;2022-09-27T10:02:23;95421.06;;;11.07;62.57
56142;BME280;42018;48.588;10.836;2022-09-27T10:05:37;95423.53;;;11.03;62.88
56142;BME280;42018;48.588;10.836;2022-09-27T10:08:22;95414.63;;;11.22;63.51
56142;BME280;42018;48.588;10.836;2022-09-27T10:11:39;95408.00;;;11.64;61.81
56142;BME280;42018;48.588;10.836;2022-09-27T10:14:25;95422.19;;;11.60;60.43
56142;BME280;42018;48.588;10.836;2022-09-27T10:17:15;95413.59;;;11.63;61.42
56142;BME280;42018;48.588;10.836;2022-09-27T10:20:03;95414.47;;;12.03;61.28
56142;BME280;42018;48.588;10.836;2022-09-27T10:22:53;95426.47;;;11.47;61.07
56142;BME280;42018;48.588;10.836;2022-09-27T10:25:52;95429.81;;;11.53;61.28
56142;BME280;42018;48.588;10.836;2022-09-27T10:28:43;95433.56;;;11.38;60.95
56142;BME280;42018;48.588;10.836;2022-09-27T10:31:34;95434.47;;;11.56;61.26
56142;BME280;42018;48.588;10.836;2022-09-27T10:34:36;95416.72;;;12.27;62.04
56142;BME280;42018;48.588;10.836;2022-09-27T10:37:23;95416.66;;;12.76;59.50
56142;BME280;42018;48.588;10.836;2022-09-27T10:46:16;95426.50;;;12.58;58.27
56142;BME280;42018;48.588;10.836;2022-09-27T10:49:27;95423.00;;;12.31;59.25
56142;BME280;42018;48.588;10.836;2022-09-27T10:52:16;95423.13;;;12.26;57.86
56142;BME280;42018;48.588;10.836;2022-09-27T10:55:20;95422.19;;;12.31;58.71
56142;BME280;42018;48.588;10.836;2022-09-27T10:58:16;95410.25;;;12.68;58.89
56142;BME280;42018;48.588;10.836;2022-09-27T11:01:07;95416.69;;;12.10;58.44
56142;BME280;42018;48.588;10.836;2022-09-27T11:03:56;95417.00;;;12.17;58.54
56142;BME280;42018;48.588;10.836;2022-09-27T11:06:42;95428.03;;;12.50;59.28
56142;BME280;42018;48.588;10.836;2022-09-27T11:09:28;95441.28;;;11.93;57.71
56142;BME280;42018;48.588;10.836;2022-09-27T11:12:15;95487.66;;;11.28;62.64
56142;BME280;42018;48.588;10.836;2022-09-27T11:15:06;95478.16;;;10.63;65.64
56142;BME280;42018;48.588;10.836;2022-09-27T11:18:08;95456.19;;;10.63;67.59
56142;BME280;42018;48.588;10.836;2022-09-27T11:21:15;95473.16;;;10.62;67.90
56142;BME280;42018;48.588;10.836;2022-09-27T11:30:16;95449.44;;;11.29;71.84
56142;BME280;42018;48.588;10.836;2022-09-27T11:33:27;95436.97;;;11.30;71.12
56142;BME280;42018;48.588;10.836;2022-09-27T11:36:27;95439.13;;;11.05;70.68
56142;BME280;42018;48.588;10.836;2022-09-27T11:48:29;95399.56;;;12.33;64.05
56142;BME280;42018;48.588;10.836;2022-09-27T11:54:35;95396.09;;;12.24;60.46
56142;BME280;42018;48.588;10.836;2022-09-27T12:09:55;95380.09;;;12.99;57.19
56142;BME280;42018;48.588;10.836;2022-09-27T12:12:49;95386.19;;;12.56;56.01
56142;BME280;42018;48.588;10.836;2022-09-27T12:15:40;95382.91;;;13.02;56.86
56142;BME280;42018;48.588;10.836;2022-09-27T12:18:27;95372.09;;;12.90;57.51
56142;BME280;42018;48.588;10.836;2022-09-27T12:21:16;95387.56;;;12.53;57.80
56142;BME280;42018;48.588;10.836;2022-09-27T12:24:03;95388.00;;;12.29;57.25
56142;BME280;42018;48.588;10.836;2022-09-27T12:26:52;95379.81;;;12.08;58.49
56142;BME280;42018;48.588;10.836;2022-09-27T12:29:40;95389.69;;;12.25;58.79
56142;BME280;42018;48.588;10.836;2022-09-27T12:32:36;95374.88;;;12.41;59.14
56142;BME280;42018;48.588;10.836;2022-09-27T12:35:39;95364.59;;;12.83;59.14
56142;BME280;42018;48.588;10.836;2022-09-27T12:39:00;95368.03;;;13.18;56.93
56142;BME280;42018;48.588;10.836;2022-09-27T12:41:55;95363.69;;;12.88;55.43
56142;BME280;42018;48.588;10.836;2022-09-27T12:44:46;95355.72;;;12.70;55.51
56142;BME280;42018;48.588;10.836;2022-09-27T12:47:45;95339.25;;;13.21;54.82
56142;BME280;42018;48.588;10.836;2022-09-27T12:50:38;95341.22;;;13.50;54.53
56142;BME280;42018;48.588;10.836;2022-09-27T13:08:21;95346.28;;;13.08;55.81
56142;BME280;42018;48.588;10.836;2022-09-27T13:11:28;95329.69;;;13.19;55.22
56142;BME280;42018;48.588;10.836;2022-09-27T13:14:25;95319.03;;;13.46;55.07
56142;BME280;42018;48.588;10.836;2022-09-27T13:26:41;95301.91;;;13.94;54.25
56142;BME280;42018;48.588;10.836;2022-09-27T13:29:29;95298.88;;;13.74;53.81
56142;BME280;42018;48.588;10.836;2022-09-27T13:32:18;95297.47;;;14.06;54.12
56142;BME280;42018;48.588;10.836;2022-09-27T13:35:24;95303.25;;;14.29;53.92
56142;BME280;42018;48.588;10.836;2022-09-27T13:38:23;95307.97;;;13.73;52.35
56142;BME280;42018;48.588;10.836;2022-09-27T13:41:14;95303.66;;;13.89;50.65
56142;BME280;42018;48.588;10.836;2022-09-27T13:44:11;95286.47;;;14.08;52.38
56142;BME280;42018;48.588;10.836;2022-09-27T13:50:46;95300.88;;;13.39;51.76
56142;BME280;42018;48.588;10.836;2022-09-27T13:53:33;95294.81;;;13.68;53.60
56142;BME280;42018;48.588;10.836;2022-09-27T13:59:48;95308.16;;;12.95;53.81
56142;BME280;42018;48.588;10.836;2022-09-27T14:02:53;95312.06;;;13.06;54.41
56142;BME280;42018;48.588;10.836;2022-09-27T14:05:45;95320.47;;;13.08;54.85
56142;BME280;42018;48.588;10.836;2022-09-27T14:08:43;95310.53;;;12.88;55.16
56142;BME280;42018;48.588;10.836;2022-09-27T14:11:33;95312.69;;;12.86;55.54
56142;BME280;42018;48.588;10.836;2022-09-27T14:14:26;95320.06;;;12.72;55.28
56142;BME280;42018;48.588;10.836;2022-09-27T14:17:13;95323.81;;;12.79;55.68
56142;BME280;42018;48.588;10.836;2022-09-27T14:19:58;95326.44;;;12.97;55.65
56142;BME280;42018;48.588;10.836;2022-09-27T14:22:52;95323.66;;;12.58;57.16
56142;BME280;42018;48.588;10.836;2022-09-27T14:25:44;95323.59;;;12.23;58.64
56142;BME280;42018;48.588;10.836;2022-09-27T14:28:38;95340.03;;;12.34;59.60
56142;BME280;42018;48.588;10.836;2022-09-27T14:31:25;95373.72;;;11.77;62.22
56142;BME280;42018;48.588;10.836;2022-09-27T14:34:11;95389.78;;;11.71;65.99
56142;BME280;42018;48.588;10.836;2022-09-27T14:36:57;95403.28;;;11.08;68.77
56142;BME280;42018;48.588;10.836;2022-09-27T14:40:04;95380.16;;;10.99;71.18
56142;BME280;42018;48.588;10.836;2022-09-27T14:42:57;95398.34;;;10.92;71.42
56142;BME280;42018;48.588;10.836;2022-09-27T14:45:44;95400.09;;;10.97;71.79
56142;BME280;42018;48.588;10.836;2022-09-27T14:48:35;95399.50;;;11.00;70.63
56142;BME280;42018;48.588;10.836;2022-09-27T14:51:27;95393.78;;;11.07;71.02
56142;BME280;42018;48.588;10.836;2022-09-27T14:54:20;95394.97;;;11.23;69.87
56142;BME280;42018;48.588;10.836;2022-09-27T14:57:06;95394.13;;;11.36;70.59
56142;BME280;42018;48.588;10.836;2022-09-27T14:59:51;95396.38;;;11.51;69.58
56142;BME280;42018;48.588;10.836;2022-09-27T15:02:39;95393.75;;;11.29;68.71
56142;BME280;42018;48.588;10.836;2022-09-27T15:05:27;95392.19;;;11.28;69.09
56142;BME280;42018;48.588;10.836;2022-09-27T15:08:13;95401.81;;;11.46;69.63
56142;BME280;42018;48.588;10.836;2022-09-27T15:11:02;95404.28;;;11.20;70.17
56142;BME280;42018;48.588;10.836;2022-09-27T15:13:50;95396.69;;;10.83;71.32
56142;BME280;42018;48.588;10.836;2022-09-27T15:16:39;95403.25;;;10.35;72.88
56142;BME280;42018;48.588;10.836;2022-09-27T15:19:27;95386.34;;;10.59;73.67
56142;BME280;42018;48.588;10.836;2022-09-27T15:22:39;95376.19;;;10.38;73.88
56142;BME280;42018;48.588;10.836;2022-09-27T15:35:56;95382.06;;;10.49;74.10
56142;BME280;42018;48.588;10.836;2022-09-27T15:38:44;95380.09;;;10.54;74.74
56142;BME280;42018;48.588;10.836;2022-09-27T15:53:02;95388.16;;;11.08;74.26
56142;BME280;42018;48.588;10.836;2022-09-27T15:55:53;95380.38;;;10.89;74.33
56142;BME280;42018;48.588;10.836;2022-09-27T16:44:27;95396.44;;;11.07;68.86
56142;BME280;42018;48.588;10.836;2022-09-27T16:47:13;95391.94;;;10.93;68.63
56142;BME280;42018;48.588;10.836;2022-09-27T16:49:58;95403.34;;;10.58;66.86
56142;BME280;42018;48.588;10.836;2022-09-27T16:53:05;95391.66;;;10.17;65.28
56142;BME280;42018;48.588;10.836;2022-09-27T16:55:51;95407.56;;;10.17;66.16
56142;BME280;42018;48.588;10.836;2022-09-27T16:58:37;95405.53;;;10.14;65.14
56142;BME280;42018;48.588;10.836;2022-09-27T17:01:29;95400.81;;;10.11;65.22
56142;BME280;42018;48.588;10.836;2022-09-27T17:04:15;95411.75;;;9.77;65.98
56142;BME280;42018;48.588;10.836;2022-09-27T17:07:00;95413.13;;;9.74;66.14
56142;BME280;42018;48.588;10.836;2022-09-27T17:09:50;95414.34;;;9.49;67.86
56142;BME280;42018;48.588;10.836;2022-09-27T17:12:36;95425.97;;;9.95;66.76
56142;BME280;42018;48.588;10.836;2022-09-27T17:15:22;95414.13;;;9.92;66.24
56142;BME280;42018;48.588;10.836;2022-09-27T17:18:08;95423.34;;;9.95;66.50
56142;BME280;42018;48.588;10.836;2022-09-27T17:20:59;95423.19;;;9.58;66.56
56142;BME280;42018;48.588;10.836;2022-09-27T17:23:48;95422.75;;;9.38;67.68
56142;BME280;42018;48.588;10.836;2022-09-27T17:26:33;95426.16;;;9.38;68.70
56142;BME280;42018;48.588;10.836;2022-09-27T17:29:19;95426.56;;;9.64;67.83
56142;BME280;42018;48.588;10.836;2022-09-27T17:32:07;95414.75;;;9.56;67.97
56142;BME280;42018;48.588;10.836;2022-09-27T17:34:55;95430.59;;;9.43;67.38
56142;BME280;42018;48.588;10.836;2022-09-27T17:37:41;95431.97;;;9.21;68.69
56142;BME280;42018;48.588;10.836;2022-09-27T17:40:27;95430.78;;;9.32;68.17
56142;BME280;42018;48.588;10.836;2022-09-27T17:43:12;95422.22;;;9.03;68.63
56142;BME280;42018;48.588;10.836;2022-09-27T17:46:05;95426.69;;;9.40;67.90
56142;BME280;42018;48.588;10.836;2022-09-27T17:48:51;95420.97;;;9.33;67.72
56142;BME280;42018;48.588;10.836;2022-09-27T17:51:55;95418.97;;;9.25;68.17
56142;BME280;42018;48.588;10.836;2022-09-27T17:54:41;95427.41;;;9.27;68.11
56142;BME280;42018;48.588;10.836;2022-09-27T17:57:28;95431.88;;;8.94;68.69
56142;BME280;42018;48.588;10.836;2022-09-27T18:00:16;95429.13;;;9.18;68.42
56142;BME280;42018;48.588;10.836;2022-09-27T18:03:05;95433.78;;;9.26;67.79
56142;BME280;42018;48.588;10.836;2022-09-27T18:05:52;95433.56;;;9.03;68.00
56142;BME280;42018;48.588;10.836;2022-09-27T18:08:38;95433.47;;;9.27;68.11
56142;BME280;42018;48.588;10.836;2022-09-27T18:11:25;95436.28;;;9.17;67.79
56142;BME280;42018;48.588;10.836;2022-09-27T18:14:14;95437.94;;;9.13;67.15
56142;BME280;42018;48.588;10.836;2022-09-27T18:17:02;95434.47;;;8.80;67.65
56142;BME280;42018;48.588;10.836;2022-09-27T18:19:47;95444.00;;;9.14;66.76